Time;durP1;ratioP1;P1;durP2;ratioP2;P2;SDS_P1;SDS_P2;PMS_P1;PMS_P2;Temp;Humidity;BMP_temperature;BMP_pressure;BME280_temperature;BME280_humidity;BME280_pressure;Samples;Min_cycle;Max_cycle;Signal;HPM_P1;HPM_P2
2021/04/05 00:01:47;;;;;;;26.17;17.15;;;6.20;99.90;;;;;;5071518;28;20207;-77
2021/04/05 00:04:13;;;;;;;28.55;18.75;;;6.20;99.90;;;;;;5071847;28;20215;-78
2021/04/05 00:06:40;;;;;;;27.98;16.77;;;6.20;99.90;;;;;;5072450;28;20295;-77
2021/04/05 00:09:07;;;;;;;26.63;17.17;;;6.20;99.90;;;;;;5070948;28;20199;-77
2021/04/05 00:11:33;;;;;;;29.90;17.30;;;6.20;99.90;;;;;;5071266;28;20188;-77
2021/04/05 00:14:00;;;;;;;28.15;16.45;;;6.30;99.90;;;;;;5070218;28;20199;-78
2021/04/05 00:16:27;;;;;;;27.88;17.70;;;6.30;99.90;;;;;;5072249;28;20287;-77
2021/04/05 00:18:54;;;;;;;27.45;17.52;;;6.30;99.90;;;;;;5070277;28;20215;-78
2021/04/05 00:21:22;;;;;;;26.42;16.17;;;6.30;99.90;;;;;;5072631;28;20602;-78
2021/04/05 00:23:54;;;;;;;35.95;17.73;;;6.30;99.90;;;;;;5057488;28;20226;-78
2021/04/05 00:26:21;;;;;;;35.65;19.55;;;6.40;99.90;;;;;;5057022;28;20211;-78
2021/04/05 00:28:48;;;;;;;27.55;17.55;;;6.40;99.90;;;;;;5070978;28;20267;-77
2021/04/05 00:31:16;;;;;;;24.67;16.38;;;6.40;99.90;;;;;;5064072;28;20580;-77
2021/04/05 00:33:42;;;;;;;30.65;18.55;;;6.40;99.90;;;;;;5072315;28;20235;-77
2021/04/05 00:36:09;;;;;;;32.85;18.85;;;6.50;99.90;;;;;;5069885;28;20220;-77
2021/04/05 00:38:36;;;;;;;25.98;17.65;;;6.50;99.90;;;;;;5067697;28;20267;-78
2021/04/05 00:41:14;;;;;;;33.03;19.27;;;6.50;99.90;;;;;;5069948;28;20272;-78
2021/04/05 00:43:44;;;;;;;30.83;17.17;;;6.60;99.90;;;;;;5070952;28;20212;-77
2021/04/05 00:46:12;;;;;;;24.70;16.63;;;6.60;99.90;;;;;;5058497;28;20220;-77
2021/04/05 00:48:38;;;;;;;29.33;15.82;;;6.60;99.90;;;;;;5067348;28;20548;-77
2021/04/05 00:51:11;;;;;;;29.63;15.65;;;6.50;99.90;;;;;;5069991;28;20216;-78
2021/04/05 00:53:39;;;;;;;33.90;17.85;;;6.60;99.90;;;;;;5061165;28;20280;-77
2021/04/05 00:56:07;;;;;;;24.55;15.80;;;6.60;99.90;;;;;;5071249;28;20243;-77
2021/04/05 00:58:35;;;;;;;30.25;16.55;;;6.60;99.90;;;;;;5071805;28;20208;-78
2021/04/05 01:01:09;;;;;;;24.65;16.52;;;6.60;99.90;;;;;;5060652;28;20307;-78
2021/04/05 01:03:40;;;;;;;26.20;16.98;;;6.60;99.90;;;;;;5071674;28;20278;-78
2021/04/05 01:06:10;;;;;;;28.88;16.55;;;6.60;99.90;;;;;;5068964;28;20708;-77
2021/04/05 01:08:36;;;;;;;28.85;16.02;;;6.60;99.90;;;;;;5069387;28;20176;-77
2021/04/05 01:11:05;;;;;;;28.85;16.77;;;6.70;99.90;;;;;;5069625;28;20261;-77
2021/04/05 01:13:32;;;;;;;24.85;16.70;;;6.70;99.90;;;;;;5071326;28;20646;-77
2021/04/05 01:15:58;;;;;;;29.33;16.85;;;6.70;99.90;;;;;;5069189;28;20216;-77
2021/04/05 01:18:27;;;;;;;25.92;17.20;;;6.70;99.90;;;;;;5071340;28;20188;-77
2021/04/05 01:20:54;;;;;;;26.20;16.08;;;6.70;99.90;;;;;;5070944;28;20303;-77
2021/04/05 01:23:21;;;;;;;26.73;17.50;;;6.70;99.90;;;;;;5069446;28;20188;-77
2021/04/05 01:25:48;;;;;;;27.48;16.10;;;6.70;99.90;;;;;;5070634;28;20263;-77
2021/04/05 01:28:15;;;;;;;29.52;16.63;;;6.70;99.90;;;;;;5055552;28;20187;-78
2021/04/05 01:30:47;;;;;;;30.15;17.23;;;6.70;99.90;;;;;;5060791;28;20207;-77
2021/04/05 01:33:31;;;;;;;32.58;16.95;;;6.70;99.90;;;;;;5071632;28;20179;-77
2021/04/05 01:36:10;;;;;;;29.83;16.55;;;6.70;99.90;;;;;;5069148;28;20243;-77
2021/04/05 01:38:47;;;;;;;29.77;17.27;;;6.80;99.90;;;;;;5059782;28;20201;-78
2021/04/05 01:41:28;;;;;;;22.42;15.10;;;6.80;99.90;;;;;;5069446;28;20242;-77
2021/04/05 01:43:55;;;;;;;21.60;15.52;;;6.70;99.90;;;;;;5069818;28;20610;-78
2021/04/05 01:46:23;;;;;;;28.48;17.77;;;6.80;99.90;;;;;;5071240;28;20213;-78
2021/04/05 01:48:50;;;;;;;24.35;15.50;;;6.80;99.90;;;;;;5070942;28;20218;-77
2021/04/05 01:51:20;;;;;;;28.60;17.98;;;6.80;99.90;;;;;;5071276;28;20184;-77
2021/04/05 01:53:48;;;;;;;24.92;16.92;;;6.90;99.90;;;;;;5065951;28;20208;-78
2021/04/05 01:56:16;;;;;;;21.75;15.75;;;6.90;99.90;;;;;;5049386;28;20654;-77
2021/04/05 01:58:49;;;;;;;22.75;16.15;;;6.80;99.90;;;;;;5057317;28;20650;-78
2021/04/05 02:01:28;;;;;;;26.30;15.50;;;6.80;99.90;;;;;;5076531;28;20261;-77
2021/04/05 02:03:55;;;;;;;25.77;17.48;;;6.90;99.90;;;;;;5065617;28;20195;-77
2021/04/05 02:06:26;;;;;;;34.50;15.50;;;6.80;99.90;;;;;;5070753;28;20207;-77
2021/04/05 02:08:53;;;;;;;25.27;16.90;;;6.80;99.90;;;;;;5069460;28;20184;-77
2021/04/05 02:11:29;;;;;;;25.13;17.17;;;6.80;99.90;;;;;;5069379;28;20271;-77
2021/04/05 02:13:58;;;;;;;24.92;16.35;;;6.80;99.90;;;;;;5068433;28;20608;-78
2021/04/05 02:16:26;;;;;;;20.08;15.40;;;6.80;99.90;;;;;;5070567;28;20632;-77
2021/04/05 02:18:56;;;;;;;25.20;16.15;;;6.90;99.90;;;;;;5072719;28;20191;-78
2021/04/05 02:21:24;;;;;;;32.42;16.85;;;6.90;99.90;;;;;;5056987;28;20207;-77
2021/04/05 02:23:53;;;;;;;30.02;15.00;;;6.90;99.90;;;;;;5064811;28;20690;-77
2021/04/05 02:26:26;;;;;;;25.42;15.65;;;6.90;99.90;;;;;;5058054;28;20208;-78
2021/04/05 02:28:54;;;;;;;27.17;17.65;;;6.80;99.90;;;;;;5071765;28;20708;-78
2021/04/05 02:31:22;;;;;;;20.83;15.77;;;6.90;99.90;;;;;;5066509;28;20188;-78
2021/04/05 02:33:51;;;;;;;34.78;16.35;;;6.80;99.90;;;;;;5073266;28;20874;-77
2021/04/05 02:36:20;;;;;;;24.35;14.32;;;6.90;99.90;;;;;;5073535;28;20311;-77
2021/04/05 02:38:49;;;;;;;27.70;14.73;;;6.90;99.90;;;;;;5072860;28;20585;-78
2021/04/05 02:41:19;;;;;;;24.05;15.40;;;6.90;99.90;;;;;;5064320;28;20266;-77
2021/04/05 02:43:46;;;;;;;26.20;16.02;;;6.90;99.90;;;;;;5072989;28;20229;-78
2021/04/05 02:46:19;;;;;;;24.35;16.38;;;6.90;99.90;;;;;;5056410;28;20629;-78
2021/04/05 02:48:50;;;;;;;23.95;15.95;;;6.90;99.90;;;;;;5074284;28;20214;-77
2021/04/05 02:51:17;;;;;;;23.42;15.90;;;6.90;99.90;;;;;;5060134;28;20213;-77
2021/04/05 02:53:46;;;;;;;22.98;15.57;;;6.90;99.90;;;;;;5069904;28;20184;-78
2021/04/05 02:56:14;;;;;;;22.25;14.32;;;6.90;99.90;;;;;;5065272;28;20216;-78
2021/04/05 02:58:43;;;;;;;25.23;15.43;;;6.90;99.90;;;;;;5072956;28;20183;-78
2021/04/05 03:01:12;;;;;;;30.52;16.83;;;7.00;99.90;;;;;;5064867;28;20277;-78
2021/04/05 03:03:43;;;;;;;25.80;15.05;;;6.90;99.90;;;;;;5071692;28;20619;-78
2021/04/05 03:06:13;;;;;;;21.17;14.70;;;6.90;99.90;;;;;;5072840;28;20277;-78
2021/04/05 03:08:40;;;;;;;21.15;13.18;;;7.00;99.90;;;;;;5069779;28;20652;-78
2021/04/05 03:11:07;;;;;;;25.55;15.40;;;7.00;99.90;;;;;;5073377;28;20266;-77
2021/04/05 03:13:36;;;;;;;19.45;12.82;;;7.10;99.90;;;;;;5072300;28;20587;-78
2021/04/05 03:16:10;;;;;;;23.90;15.73;;;7.10;99.90;;;;;;5072286;28;20224;-77
2021/04/05 03:18:38;;;;;;;22.75;14.68;;;7.10;99.90;;;;;;5072353;28;20192;-77
2021/04/05 03:21:07;;;;;;;22.10;13.90;;;7.10;99.90;;;;;;5073346;28;20337;-78
2021/04/05 03:23:35;;;;;;;22.50;14.13;;;7.10;99.90;;;;;;5072518;28;20176;-77
2021/04/05 03:26:02;;;;;;;20.60;14.45;;;7.20;99.90;;;;;;5070988;28;20300;-77
2021/04/05 03:28:28;;;;;;;23.58;14.30;;;7.10;99.90;;;;;;5071377;28;20198;-77
2021/04/05 03:31:04;;;;;;;21.98;15.05;;;7.20;99.90;;;;;;5069842;28;20234;-77
2021/04/05 03:33:45;;;;;;;24.63;13.95;;;7.10;99.90;;;;;;5073357;28;20196;-77
2021/04/05 03:36:16;;;;;;;21.10;13.05;;;7.10;99.90;;;;;;5072265;28;20298;-78
2021/04/05 03:38:43;;;;;;;26.05;13.90;;;7.10;99.90;;;;;;5071065;28;20233;-77
2021/04/05 03:41:16;;;;;;;22.63;12.55;;;7.20;99.90;;;;;;5071503;28;20216;-77
2021/04/05 03:43:53;;;;;;;22.67;14.10;;;7.10;99.90;;;;;;5072882;28;20229;-77
2021/04/05 03:46:24;;;;;;;21.95;12.90;;;7.10;99.90;;;;;;5060819;28;20212;-77
2021/04/05 03:48:58;;;;;;;25.85;15.13;;;7.10;99.90;;;;;;5070547;28;20271;-78
2021/04/05 03:51:45;;;;;;;24.05;13.55;;;7.10;99.90;;;;;;5058478;28;20178;-78
2021/04/05 03:54:15;;;;;;;30.13;14.25;;;7.00;99.90;;;;;;5070936;28;20736;-77
2021/04/05 03:56:51;;;;;;;20.77;12.82;;;7.00;99.90;;;;;;5072626;28;20238;-78
2021/04/05 03:59:24;;;;;;;25.35;14.20;;;7.00;99.90;;;;;;5066054;28;20216;-77
2021/04/05 04:01:54;;;;;;;21.42;12.98;;;6.90;99.90;;;;;;5068511;28;20192;-77
2021/04/05 04:04:28;;;;;;;22.88;14.98;;;6.90;99.90;;;;;;5071856;28;20223;-77
2021/04/05 04:07:13;;;;;;;22.83;15.02;;;6.90;99.90;;;;;;5057376;28;20572;-78
2021/04/05 04:09:40;;;;;;;24.13;14.63;;;6.80;99.90;;;;;;5070770;28;20243;-78
2021/04/05 04:12:14;;;;;;;20.67;15.05;;;6.80;99.90;;;;;;5071108;28;20188;-78
2021/04/05 04:14:42;;;;;;;29.23;13.95;;;6.80;99.90;;;;;;5070162;28;20222;-77
2021/04/05 04:17:10;;;;;;;22.60;13.80;;;6.80;99.90;;;;;;5072352;28;20192;-77
2021/04/05 04:19:38;;;;;;;20.85;13.95;;;6.80;99.90;;;;;;5071462;28;20273;-78
2021/04/05 04:22:06;;;;;;;24.42;14.02;;;6.80;99.90;;;;;;5070644;28;20188;-77
2021/04/05 04:24:37;;;;;;;21.40;13.90;;;6.90;99.90;;;;;;5068504;28;20215;-77
2021/04/05 04:27:04;;;;;;;25.77;14.35;;;6.80;99.90;;;;;;5072251;28;20179;-77
2021/04/05 04:29:31;;;;;;;25.40;15.73;;;6.80;99.90;;;;;;5056272;28;20215;-77
2021/04/05 04:31:58;;;;;;;22.83;13.45;;;6.90;99.90;;;;;;5070258;28;20279;-78
2021/04/05 04:34:25;;;;;;;23.75;15.02;;;6.80;99.90;;;;;;5071750;28;20243;-78
2021/04/05 04:36:51;;;;;;;24.08;14.63;;;6.80;99.90;;;;;;5068580;28;20952;-77
2021/04/05 04:39:19;;;;;;;23.92;13.75;;;6.80;99.90;;;;;;5064434;28;20228;-77
2021/04/05 04:41:48;;;;;;;26.90;15.52;;;6.80;99.90;;;;;;5071854;28;20183;-78
2021/04/05 04:44:14;;;;;;;24.20;15.63;;;6.80;99.90;;;;;;5069947;28;20581;-77
2021/04/05 04:46:41;;;;;;;27.23;16.35;;;6.80;99.90;;;;;;5071469;28;20295;-77
2021/04/05 04:49:10;;;;;;;27.13;17.30;;;6.90;99.90;;;;;;5071184;28;20274;-77
2021/04/05 04:51:37;;;;;;;22.35;14.63;;;6.80;99.90;;;;;;5056023;28;20440;-77
2021/04/05 04:54:05;;;;;;;19.92;13.38;;;6.80;99.90;;;;;;5061472;28;20208;-78
2021/04/05 04:56:32;;;;;;;21.15;15.52;;;6.80;99.90;;;;;;5071681;28;20562;-77
2021/04/05 04:58:59;;;;;;;27.80;15.68;;;6.80;99.90;;;;;;5069686;28;20246;-78
2021/04/05 05:01:29;;;;;;;21.08;15.38;;;6.80;99.90;;;;;;5071894;28;20180;-77
2021/04/05 05:04:02;;;;;;;29.38;15.75;;;6.80;99.90;;;;;;5070552;28;20192;-77
2021/04/05 05:06:30;;;;;;;27.63;15.13;;;6.80;99.90;;;;;;5070436;28;20576;-78
2021/04/05 05:08:57;;;;;;;31.50;17.23;;;6.80;99.90;;;;;;5060962;28;20265;-78
2021/04/05 05:11:25;;;;;;;24.40;16.42;;;6.80;99.90;;;;;;5069988;28;20261;-77
2021/04/05 05:13:52;;;;;;;28.52;18.13;;;6.80;99.90;;;;;;5067887;28;20610;-77
2021/04/05 05:16:19;;;;;;;27.27;16.17;;;6.80;99.90;;;;;;5065914;28;20656;-78
2021/04/05 05:18:47;;;;;;;28.90;17.33;;;6.90;99.90;;;;;;5059739;28;20172;-77
2021/04/05 05:21:22;;;;;;;29.95;19.33;;;6.80;99.90;;;;;;5069720;28;20312;-77
2021/04/05 05:23:51;;;;;;;28.00;17.25;;;6.80;99.90;;;;;;5064951;28;20197;-78
2021/04/05 05:26:19;;;;;;;28.55;18.50;;;6.80;99.90;;;;;;5070653;28;20387;-77
2021/04/05 05:28:48;;;;;;;27.25;16.80;;;6.80;99.90;;;;;;5068975;28;20203;-77
2021/04/05 05:31:14;;;;;;;32.08;17.65;;;6.80;99.90;;;;;;5063019;28;20216;-77
2021/04/05 05:33:41;;;;;;;30.17;18.25;;;6.80;99.90;;;;;;5071300;28;20267;-77
2021/04/05 05:36:07;;;;;;;26.10;16.60;;;6.70;99.90;;;;;;5070360;28;20302;-77
2021/04/05 05:38:35;;;;;;;27.88;17.90;;;6.70;99.90;;;;;;5070336;28;20266;-78
2021/04/05 05:41:41;;;;;;;31.17;18.70;;;6.70;99.90;;;;;;5070233;28;20228;-77
2021/04/05 05:44:17;;;;;;;28.23;14.93;;;6.70;99.90;;;;;;5054237;28;20616;-78
2021/04/05 05:46:51;;;;;;;28.40;18.20;;;6.70;99.90;;;;;;5067058;28;20291;-78
2021/04/05 05:49:43;;;;;;;27.50;16.75;;;6.70;99.90;;;;;;5070580;28;20246;-78
2021/04/05 05:52:46;;;;;;;31.00;17.17;;;6.70;99.90;;;;;;5068801;28;20176;-78
2021/04/05 05:55:31;;;;;;;31.02;18.13;;;6.70;99.90;;;;;;5074483;28;20280;-78
2021/04/05 05:58:12;;;;;;;32.92;20.05;;;6.70;99.90;;;;;;5075061;28;20241;-77
2021/04/05 06:00:51;;;;;;;37.85;19.08;;;6.70;99.90;;;;;;5071961;28;20708;-77
2021/04/05 06:03:24;;;;;;;30.52;18.25;;;6.60;99.90;;;;;;5050925;28;20200;-77
2021/04/05 06:06:16;;;;;;;33.17;18.45;;;6.60;99.90;;;;;;5072217;28;20257;-78
2021/04/05 06:09:12;;;;;;;27.05;18.63;;;6.50;99.90;;;;;;5066909;28;20180;-78
2021/04/05 06:12:01;;;;;;;28.95;19.25;;;6.50;99.90;;;;;;5060957;28;20204;-78
2021/04/05 06:14:55;;;;;;;28.85;18.33;;;6.60;99.90;;;;;;5067054;28;20224;-78
2021/04/05 06:17:31;;;;;;;33.47;19.67;;;6.60;99.90;;;;;;5042941;28;20189;-77
2021/04/05 06:20:26;;;;;;;31.95;19.08;;;6.50;99.90;;;;;;5070810;28;20219;-78
2021/04/05 06:23:30;;;;;;;27.15;17.33;;;6.50;99.90;;;;;;5063125;28;20184;-78
2021/04/05 06:26:14;;;;;;;34.88;21.02;;;6.50;99.90;;;;;;5071506;28;20223;-78
2021/04/05 06:28:47;;;;;;;33.75;18.45;;;6.50;99.90;;;;;;5072628;28;20657;-77
2021/04/05 06:31:48;;;;;;;29.48;20.08;;;6.50;99.90;;;;;;5077899;28;20224;-78
2021/04/05 06:34:18;;;;;;;32.88;19.33;;;6.50;99.90;;;;;;5023612;28;20585;-78
2021/04/05 06:36:56;;;;;;;30.52;18.90;;;6.50;99.90;;;;;;5072691;28;20269;-77
2021/04/05 06:39:29;;;;;;;34.70;20.50;;;6.50;99.90;;;;;;5071882;28;20224;-78
2021/04/05 06:41:56;;;;;;;33.30;21.20;;;6.50;99.90;;;;;;5072891;28;20191;-77
2021/04/05 06:44:54;;;;;;;32.00;20.17;;;6.50;99.90;;;;;;5071036;28;20215;-78
2021/04/05 06:47:34;;;;;;;36.28;20.88;;;6.50;99.90;;;;;;5055844;28;20270;-78
2021/04/05 06:50:51;;;;;;;43.67;21.40;;;6.50;99.90;;;;;;5072380;28;20226;-77
2021/04/05 06:53:35;;;;;;;42.67;21.70;;;6.50;99.90;;;;;;5055086;28;20201;-77
2021/04/05 06:56:10;;;;;;;35.28;20.58;;;6.50;99.90;;;;;;5071142;28;20223;-78
2021/04/05 06:58:52;;;;;;;37.35;19.30;;;6.50;99.90;;;;;;5072904;28;20609;-78
2021/04/05 07:01:38;;;;;;;38.92;22.02;;;6.50;99.90;;;;;;5065325;28;20216;-78
2021/04/05 07:04:38;;;;;;;38.40;21.80;;;6.50;99.90;;;;;;5061600;28;20202;-78
2021/04/05 07:07:23;;;;;;;33.60;22.23;;;6.50;99.90;;;;;;5071786;28;20267;-77
2021/04/05 07:10:28;;;;;;;34.60;21.63;;;6.40;99.90;;;;;;5070267;28;20231;-78
2021/04/05 07:13:03;;;;;;;32.40;21.27;;;6.40;99.90;;;;;;5042542;28;20184;-77
2021/04/05 07:15:43;;;;;;;36.63;23.30;;;6.40;99.90;;;;;;5074313;28;20218;-78
2021/04/05 07:18:28;;;;;;;28.17;20.65;;;6.50;99.90;;;;;;5069652;28;20176;-78
2021/04/05 07:21:21;;;;;;;35.03;20.63;;;6.50;99.90;;;;;;5073128;28;20717;-77
2021/04/05 07:24:13;;;;;;;34.63;21.70;;;6.50;99.90;;;;;;5027121;28;20181;-77
2021/04/05 07:26:49;;;;;;;38.72;21.98;;;6.60;99.90;;;;;;5059636;28;20250;-78
2021/04/05 07:29:41;;;;;;;36.92;21.50;;;6.60;99.90;;;;;;5062951;28;20219;-77
2021/04/05 07:32:50;;;;;;;33.53;21.55;;;6.60;99.90;;;;;;5049290;28;20207;-77
2021/04/05 07:35:37;;;;;;;45.45;23.35;;;6.60;99.90;;;;;;5071232;28;20230;-78
2021/04/05 07:38:06;;;;;;;35.47;22.70;;;6.60;99.90;;;;;;5069194;28;20237;-78
2021/04/05 07:41:03;;;;;;;35.03;22.33;;;6.70;99.90;;;;;;5072650;28;20253;-78
2021/04/05 07:43:56;;;;;;;38.85;20.90;;;6.70;99.90;;;;;;5070831;28;20179;-77
2021/04/05 07:46:56;;;;;;;32.53;21.08;;;6.80;99.90;;;;;;5042889;28;20299;-78
2021/04/05 07:49:58;;;;;;;36.33;20.55;;;6.80;99.90;;;;;;5061993;28;20222;-77
2021/04/05 07:52:45;;;;;;;32.05;20.80;;;6.90;99.90;;;;;;5067806;28;20188;-77
2021/04/05 07:55:14;;;;;;;41.67;21.75;;;7.00;99.90;;;;;;5053183;28;20267;-77
2021/04/05 07:57:55;;;;;;;30.48;20.88;;;7.00;99.90;;;;;;5070531;28;20245;-77
2021/04/05 08:00:27;;;;;;;33.78;21.67;;;7.10;99.90;;;;;;5047306;28;20227;-78
2021/04/05 08:03:28;;;;;;;37.00;21.13;;;7.10;99.90;;;;;;5071534;28;20645;-78
2021/04/05 08:06:02;;;;;;;31.98;20.00;;;7.20;99.90;;;;;;5067432;28;20207;-78
2021/04/05 08:08:45;;;;;;;26.65;18.90;;;7.20;99.90;;;;;;5070737;28;20734;-77
2021/04/05 08:11:23;;;;;;;31.27;19.63;;;7.30;99.90;;;;;;5062512;28;20219;-78
2021/04/05 08:14:27;;;;;;;27.35;21.17;;;7.30;99.90;;;;;;5069769;28;20602;-78
2021/04/05 08:17:33;;;;;;;28.92;18.35;;;7.30;99.90;;;;;;5059783;28;20249;-78
2021/04/05 08:20:14;;;;;;;36.17;19.38;;;7.40;99.90;;;;;;5078441;28;20241;-78
2021/04/05 08:22:56;;;;;;;36.88;20.67;;;7.30;99.90;;;;;;5069530;28;20684;-78
2021/04/05 08:25:47;;;;;;;29.55;18.77;;;7.40;99.90;;;;;;5048492;28;20239;-78
2021/04/05 08:28:20;;;;;;;29.10;18.58;;;7.40;99.90;;;;;;5068366;28;20595;-78
2021/04/05 08:31:12;;;;;;;26.58;17.05;;;7.40;99.90;;;;;;5052157;28;20220;-78
2021/04/05 08:34:10;;;;;;;34.63;17.63;;;7.40;99.90;;;;;;5050509;28;20180;-77
2021/04/05 08:36:50;;;;;;;27.00;17.40;;;7.40;99.90;;;;;;5047128;28;20216;-77
2021/04/05 08:39:57;;;;;;;23.85;18.98;;;7.40;99.90;;;;;;5039445;28;20211;-77
2021/04/05 08:42:42;;;;;;;25.10;17.65;;;7.50;99.90;;;;;;5045784;28;20183;-77
2021/04/05 08:45:24;;;;;;;5.47;2.65;;;7.40;99.90;;;;;;5060684;28;20215;-81
2021/04/05 08:48:24;;;;;;;13.50;3.35;;;6.60;99.90;;;;;;5070577;28;20204;-82
2021/04/05 08:51:05;;;;;;;7.72;2.20;;;5.80;99.90;;;;;;5095491;28;20210;-82
2021/04/05 08:54:00;;;;;;;6.63;2.55;;;5.40;99.90;;;;;;5069192;28;20200;-81
2021/04/05 08:57:16;;;;;;;7.70;2.88;;;5.10;99.90;;;;;;5074966;28;20216;-83
2021/04/05 08:59:53;;;;;;;4.88;2.55;;;4.90;99.90;;;;;;5061280;28;20283;-82
2021/04/05 09:02:50;;;;;;;5.00;2.85;;;4.80;99.90;;;;;;5041970;28;20164;-82
2021/04/05 09:05:28;;;;;;;7.40;3.72;;;4.80;99.90;;;;;;5050597;28;20230;-81
2021/04/05 09:08:08;;;;;;;5.65;3.30;;;4.80;99.90;;;;;;5053103;28;20201;-81
2021/04/05 09:11:04;;;;;;;9.85;3.28;;;4.80;99.90;;;;;;5047270;28;20216;-81
2021/04/05 09:13:45;;;;;;;7.15;3.63;;;4.90;99.90;;;;;;5069323;28;20177;-81
2021/04/05 09:16:30;;;;;;;6.88;2.78;;;4.90;99.90;;;;;;5069577;28;20291;-81
2021/04/05 09:19:03;;;;;;;3.97;2.97;;;4.90;99.90;;;;;;5070232;28;20688;-81
2021/04/05 09:22:07;;;;;;;6.32;3.17;;;5.00;99.90;;;;;;5084232;28;20188;-80
2021/04/05 09:24:52;;;;;;;4.75;3.10;;;5.10;99.90;;;;;;5042145;28;20215;-79
2021/04/05 09:27:52;;;;;;;7.57;4.13;;;5.10;99.90;;;;;;5071533;28;20179;-79
2021/04/05 09:30:39;;;;;;;5.43;3.63;;;5.20;99.90;;;;;;5071500;28;20235;-78
2021/04/05 09:33:44;;;;;;;6.43;3.75;;;5.20;99.90;;;;;;5093294;28;20235;-78
2021/04/05 09:36:35;;;;;;;5.32;3.65;;;5.30;99.90;;;;;;5069964;28;20219;-78
2021/04/05 09:39:29;;;;;;;9.43;3.40;;;5.30;99.90;;;;;;5055367;28;20184;-78
2021/04/05 09:42:10;;;;;;;7.60;3.60;;;5.40;99.90;;;;;;5074154;28;20222;-78
2021/04/05 09:44:40;;;;;;;6.82;3.55;;;5.50;99.90;;;;;;5069383;28;20582;-78
2021/04/05 09:47:17;;;;;;;2.92;2.40;;;5.50;99.90;;;;;;5044617;28;20187;-78
2021/04/05 09:50:27;;;;;;;7.35;2.67;;;5.50;99.90;;;;;;5077890;28;20272;-79
2021/04/05 09:53:01;;;;;;;5.65;2.80;;;5.50;99.90;;;;;;5065651;28;20191;-80
2021/04/05 09:55:37;;;;;;;2.03;1.20;;;5.40;99.90;;;;;;5081906;28;20214;-81
2021/04/05 09:58:22;;;;;;;1.45;1.10;;;5.20;99.90;;;;;;5080174;28;20277;-79
2021/04/05 10:01:02;;;;;;;1.55;1.00;;;5.10;99.90;;;;;;5055567;28;20210;-78
2021/04/05 10:03:29;;;;;;;6.93;1.10;;;5.00;99.90;;;;;;5071147;28;20198;-78
2021/04/05 10:06:02;;;;;;;3.45;1.00;;;4.90;99.90;;;;;;5069337;28;20215;-78
2021/04/05 10:08:31;;;;;;;2.20;1.65;;;4.80;99.90;;;;;;5070600;28;20291;-78
2021/04/05 10:11:03;;;;;;;5.00;1.80;;;4.80;99.90;;;;;;5072177;28;20238;-78
2021/04/05 10:13:32;;;;;;;5.07;2.25;;;4.80;99.90;;;;;;5073065;28;20217;-79
2021/04/05 10:16:24;;;;;;;6.43;1.95;;;4.80;99.90;;;;;;5069192;28;20208;-79
2021/04/05 10:19:15;;;;;;;8.63;2.17;;;4.70;99.90;;;;;;5027459;28;20184;-79
2021/04/05 10:21:50;;;;;;;6.53;2.35;;;4.60;99.90;;;;;;5055463;28;20207;-79
2021/04/05 10:24:24;;;;;;;6.35;2.10;;;4.60;99.90;;;;;;5035171;28;20226;-78
2021/04/05 10:26:54;;;;;;;10.30;2.72;;;4.50;99.90;;;;;;5092587;28;20200;-78
2021/04/05 10:29:27;;;;;;;4.55;2.38;;;4.50;99.90;;;;;;5048858;28;20212;-78
2021/04/05 10:31:55;;;;;;;8.70;1.70;;;4.30;99.90;;;;;;5061917;28;20184;-79
2021/04/05 10:34:26;;;;;;;4.28;1.98;;;4.20;99.90;;;;;;5051221;28;20217;-79
2021/04/05 10:37:13;;;;;;;4.80;1.95;;;4.20;99.90;;;;;;5050861;28;20714;-78
2021/04/05 10:39:50;;;;;;;4.10;1.40;;;4.20;99.90;;;;;;5072130;28;20208;-78
2021/04/05 10:42:25;;;;;;;5.75;1.92;;;4.30;99.90;;;;;;5053898;28;20242;-78
2021/04/05 10:45:03;;;;;;;6.35;2.25;;;4.20;99.90;;;;;;5061740;28;20243;-78
2021/04/05 10:47:39;;;;;;;6.18;1.98;;;4.20;99.90;;;;;;5072995;28;20360;-77
2021/04/05 10:50:08;;;;;;;7.25;1.90;;;4.20;99.90;;;;;;5071832;28;20293;-78
2021/04/05 10:52:41;;;;;;;10.05;2.17;;;4.30;99.90;;;;;;5073112;28;20245;-77
2021/04/05 10:55:29;;;;;;;6.00;2.45;;;4.30;99.90;;;;;;5062576;28;20216;-78
2021/04/05 10:58:02;;;;;;;8.48;2.92;;;4.40;99.90;;;;;;5057014;28;20263;-78
2021/04/05 11:00:38;;;;;;;7.78;2.22;;;4.50;99.90;;;;;;5071698;28;20220;-77
2021/04/05 11:03:17;;;;;;;9.63;2.28;;;4.50;99.90;;;;;;5055702;28;20180;-78
2021/04/05 11:05:46;;;;;;;3.85;2.25;;;4.50;99.90;;;;;;5059723;28;20220;-77
2021/04/05 11:08:20;;;;;;;4.45;2.22;;;4.60;99.90;;;;;;5071525;28;20198;-78
2021/04/05 11:10:58;;;;;;;6.65;2.78;;;4.60;99.90;;;;;;5071395;28;20234;-78
2021/04/05 11:13:26;;;;;;;8.27;3.67;;;4.70;99.90;;;;;;5062219;28;20546;-77
2021/04/05 11:15:55;;;;;;;10.48;3.08;;;4.60;99.90;;;;;;5054327;28;20767;-78
2021/04/05 11:18:24;;;;;;;11.48;2.60;;;4.60;99.90;;;;;;5052043;28;20188;-78
2021/04/05 11:20:56;;;;;;;4.70;2.22;;;4.70;99.90;;;;;;5051164;28;20247;-78
2021/04/05 11:23:35;;;;;;;8.13;2.90;;;4.70;99.90;;;;;;5070760;28;20242;-78
2021/04/05 11:26:06;;;;;;;6.68;2.17;;;4.60;99.90;;;;;;5070760;28;20215;-78
2021/04/05 11:28:34;;;;;;;7.13;2.75;;;4.60;99.90;;;;;;5072206;28;20278;-78
2021/04/05 11:31:15;;;;;;;7.00;2.70;;;4.70;99.90;;;;;;5070903;28;20207;-78
2021/04/05 11:33:52;;;;;;;6.18;2.00;;;4.70;99.90;;;;;;5071738;28;20184;-77
2021/04/05 11:36:22;;;;;;;5.60;2.10;;;4.60;99.90;;;;;;5053447;28;20264;-77
2021/04/05 11:38:51;;;;;;;5.03;1.98;;;4.60;99.90;;;;;;5053220;28;20192;-78
2021/04/05 11:41:27;;;;;;;6.10;2.10;;;4.70;99.90;;;;;;5070343;28;20741;-77
2021/04/05 11:43:58;;;;;;;3.63;1.65;;;4.70;99.90;;;;;;5054332;28;20665;-77
2021/04/05 11:46:38;;;;;;;4.25;1.83;;;4.70;99.90;;;;;;5060940;28;20704;-77
2021/04/05 11:49:10;;;;;;;5.05;2.17;;;4.70;99.90;;;;;;5070755;28;20196;-77
2021/04/05 11:52:09;;;;;;;8.82;4.32;;;4.70;99.90;;;;;;5071290;28;20188;-78
2021/04/05 11:54:51;;;;;;;5.30;2.90;;;4.70;99.90;;;;;;5049806;28;20692;-78
2021/04/05 11:57:32;;;;;;;4.13;2.13;;;4.60;99.90;;;;;;5070592;28;20180;-77
2021/04/05 12:00:07;;;;;;;6.70;2.10;;;4.70;99.90;;;;;;5067937;28;20586;-78
2021/04/05 12:02:41;;;;;;;2.22;1.38;;;4.80;99.90;;;;;;5070962;28;20187;-78
2021/04/05 12:05:17;;;;;;;4.53;2.05;;;4.80;99.90;;;;;;5070332;28;20237;-77
2021/04/05 12:08:12;;;;;;;6.22;1.40;;;4.90;99.90;;;;;;5051143;28;20227;-78
2021/04/05 12:10:43;;;;;;;2.08;1.33;;;5.10;99.90;;;;;;5040765;28;20526;-77
2021/04/05 12:13:17;;;;;;;4.85;1.23;;;5.30;99.90;;;;;;5054257;28;20787;-78
2021/04/05 12:15:56;;;;;;;4.65;1.70;;;5.40;99.90;;;;;;5052231;28;20216;-77
2021/04/05 12:18:24;;;;;;;8.38;1.40;;;5.50;99.90;;;;;;5070608;28;20241;-77
2021/04/05 12:21:03;;;;;;;2.38;1.15;;;5.40;99.90;;;;;;5053122;28;20634;-77
2021/04/05 12:23:30;;;;;;;3.55;1.55;;;5.50;99.90;;;;;;5064818;28;20187;-77
2021/04/05 12:26:01;;;;;;;3.53;1.35;;;5.60;99.90;;;;;;5069573;28;20230;-77
2021/04/05 12:28:42;;;;;;;3.00;1.40;;;5.60;99.90;;;;;;5071161;28;20198;-77
2021/04/05 12:31:10;;;;;;;5.85;1.83;;;5.60;99.90;;;;;;5037724;28;20580;-78
2021/04/05 12:33:55;;;;;;;8.48;2.28;;;5.70;99.80;;;;;;5070682;28;20211;-77
2021/04/05 12:36:32;;;;;;;3.35;1.83;;;5.70;99.00;;;;;;5054500;28;20290;-77
2021/04/05 12:39:01;;;;;;;9.55;1.58;;;5.70;98.10;;;;;;5059174;28;20219;-77
2021/04/05 12:41:41;;;;;;;2.78;1.90;;;5.80;97.20;;;;;;5070300;28;20222;-77
2021/04/05 12:44:12;;;;;;;4.68;1.35;;;5.70;94.30;;;;;;5054706;28;20188;-77
2021/04/05 12:46:48;;;;;;;6.18;2.72;;;5.70;90.40;;;;;;5054595;28;20200;-77
2021/04/05 12:49:27;;;;;;;7.13;1.85;;;5.70;96.10;;;;;;5071642;28;20673;-77
2021/04/05 12:51:57;;;;;;;3.05;1.30;;;5.80;97.20;;;;;;5053408;28;20192;-77
2021/04/05 12:54:26;;;;;;;3.25;1.48;;;5.90;95.80;;;;;;5067035;28;20571;-77
2021/04/05 12:57:02;;;;;;;5.95;1.70;;;5.90;93.90;;;;;;5068313;28;20232;-77
2021/04/05 12:59:30;;;;;;;4.78;1.92;;;5.70;91.40;;;;;;5069129;28;20593;-77
2021/04/05 13:02:19;;;;;;;7.15;2.35;;;5.60;93.70;;;;;;5062607;28;20241;-77
2021/04/05 13:04:51;;;;;;;6.20;1.92;;;5.60;90.50;;;;;;5050780;28;20216;-77
2021/04/05 13:07:28;;;;;;;5.53;1.52;;;5.70;92.50;;;;;;5058433;28;20183;-77
2021/04/05 13:09:58;;;;;;;7.85;1.80;;;5.80;90.60;;;;;;5032773;28;20216;-77
2021/04/05 13:12:52;;;;;;;4.32;1.52;;;5.70;84.80;;;;;;5051885;28;20188;-77
2021/04/05 13:15:33;;;;;;;3.67;1.30;;;5.60;86.00;;;;;;5059646;28;20589;-77
2021/04/05 13:18:20;;;;;;;7.45;2.38;;;5.50;82.90;;;;;;5050469;28;20196;-78
2021/04/05 13:20:50;;;;;;;8.55;2.60;;;5.30;84.80;;;;;;5069371;28;20215;-78
2021/04/05 13:23:25;;;;;;;6.43;1.63;;;5.30;81.90;;;;;;5069749;28;20188;-77
2021/04/05 13:26:05;;;;;;;2.05;1.10;;;5.20;85.90;;;;;;5068690;28;20211;-77
2021/04/05 13:28:34;;;;;;;4.97;1.42;;;5.20;78.10;;;;;;5069959;28;20184;-77
2021/04/05 13:31:05;;;;;;;3.08;1.60;;;5.30;71.20;;;;;;5068627;28;20211;-77